This is the latest recevied weather packets stored in our database for station/object IK2ILW-4. If no packets are shown the sender has not sent any weather packets the latest 10 day(s).
| Time | Temp. | Humidity | Pressure | Rain* | Wind** | Luminosity | Snow |
|---|---|---|---|---|---|---|---|
| 1777571280 | 7.22° C | 83% | 1021.8 hPa | 1.02 mm | - | 21 W/m² | - |
| 1777570681 | 7.22° C | 83% | 1021.8 hPa | 1.02 mm | - | 30 W/m² | - |
| 1777570367 | 7.22° C | 82% | 1021.8 hPa | 1.02 mm | - | 28 W/m² | - |
| 1777570083 | 7.78° C | 82% | 1021.7 hPa | 1.02 mm | - | 33 W/m² | - |
| 1777569177 | 7.78° C | 80% | 1021.6 hPa | 1.02 mm | - | 46 W/m² | - |
| 1777568861 | 7.78° C | 81% | 1021.6 hPa | 1.02 mm | - | 62 W/m² | - |
| 1777568583 | 7.78° C | 80% | 1021.6 hPa | 1.02 mm | - | 84 W/m² | - |
| 1777568268 | 7.78° C | 80% | 1021.6 hPa | 1.02 mm | - | 83 W/m² | - |
| 1777566172 | 8.33° C | 79% | 1021.7 hPa | 1.02 mm | - | 125 W/m² | - |
| 1777565266 | 7.78° C | 80% | 1021.7 hPa | 1.02 mm | - | 144 W/m² | - |
| 1777563477 | 7.22° C | 81% | 1021.8 hPa | 1.02 mm | - | 221 W/m² | - |
| 1777562879 | 7.22° C | 82% | 1021.7 hPa | 1.02 mm | - | 220 W/m² | - |
| 1777559574 | 7.22° C | 81% | 1021.9 hPa | 1.02 mm | - | 197 W/m² | - |
| 1777557757 | 7.78° C | 81% | 1021.9 hPa | 1.02 mm | - | 251 W/m² | - |
| 1777554766 | 7.22° C | 80% | 1022.1 hPa | 1.02 mm | - | 353 W/m² | - |
| 1777554454 | 7.22° C | 81% | 1022.1 hPa | 1.02 mm | - | 364 W/m² | - |
| 1777552356 | 6.11° C | 84% | 1022.3 hPa | 1.02 mm | - | 461 W/m² | - |
| 1777551757 | 6.67° C | 83% | 1022.3 hPa | 1.02 mm | - | 415 W/m² | - |
| 1777551474 | 6.67° C | 82% | 1022.3 hPa | 1.02 mm | - | 388 W/m² | - |
| 1777548156 | 5° C | 85% | 1022.6 hPa | 1.02 mm | - | 394 W/m² | - |
| 1777547906 | 5° C | 86% | 1022.6 hPa | 1.02 mm | - | 276 W/m² | - |
| 1777546054 | 3.89° C | 90% | 1022.7 hPa | 1.02 mm | - | 272 W/m² | - |
| 1777545455 | 3.89° C | 90% | 1022.5 hPa | 1.02 mm | - | 167 W/m² | - |
| 1777545171 | 3.89° C | 90% | 1022.5 hPa | 1.02 mm | - | 141 W/m² | - |
| 1777544855 | 3.89° C | 91% | 1022.4 hPa | 1.02 mm | - | 128 W/m² | - |
* Rain since midnight (hover to see other rain measurements)
** Current wind speed in m/s (hover to see current wind gust speed)